createdAt,value
2022-08-16T00:01:17.336Z,21.60
2022-08-16T00:03:21.376Z,21.60
2022-08-16T00:05:27.596Z,21.60
2022-08-16T00:07:37.861Z,21.60
2022-08-16T00:09:41.707Z,21.70
2022-08-16T00:11:44.363Z,21.70
2022-08-16T00:13:53.714Z,21.70
2022-08-16T00:15:57.515Z,21.70
2022-08-16T00:18:00.867Z,21.70
2022-08-16T00:20:08.881Z,21.70
2022-08-16T00:22:15.594Z,21.70
2022-08-16T00:24:30.865Z,21.60
2022-08-16T00:26:44.111Z,21.60
2022-08-16T00:28:48.063Z,21.60
2022-08-16T00:30:59.192Z,21.60
2022-08-16T00:33:04.016Z,21.60
2022-08-16T00:35:15.268Z,21.60
2022-08-16T00:37:20.291Z,21.50
2022-08-16T00:39:23.472Z,21.50
2022-08-16T00:41:27.737Z,21.50
2022-08-16T00:43:42.738Z,21.50
2022-08-16T00:45:57.959Z,21.40
2022-08-16T00:48:03.973Z,21.40
2022-08-16T00:50:35.946Z,21.30
2022-08-16T00:52:45.716Z,21.30
2022-08-16T00:54:54.060Z,21.30
2022-08-16T00:56:59.907Z,21.20
2022-08-16T00:59:03.069Z,21.20
2022-08-16T01:01:08.158Z,21.10
2022-08-16T01:03:12.999Z,21.10
2022-08-16T01:05:15.946Z,21.10
2022-08-16T01:07:20.007Z,21.10
2022-08-16T01:09:22.779Z,21.00
2022-08-16T01:11:25.831Z,20.90
2022-08-16T01:13:30.480Z,20.90
2022-08-16T01:15:33.855Z,20.90
2022-08-16T01:17:37.563Z,20.80
2022-08-16T01:19:42.641Z,20.80
2022-08-16T01:21:47.665Z,20.80
2022-08-16T01:24:52.797Z,20.70
2022-08-16T01:26:47.213Z,20.80
2022-08-16T01:28:49.919Z,20.80
2022-08-16T01:30:57.161Z,20.70
2022-08-16T01:33:14.432Z,20.60
2022-08-16T01:35:19.292Z,20.50
2022-08-16T01:37:22.552Z,20.50
2022-08-16T01:39:26.967Z,20.40
2022-08-16T01:41:30.739Z,20.40
2022-08-16T01:43:34.600Z,20.40
2022-08-16T01:45:40.762Z,20.40
2022-08-16T01:47:49.343Z,20.30
2022-08-16T01:50:43.123Z,20.30
2022-08-16T01:52:29.678Z,20.40
2022-08-16T01:54:34.593Z,20.40
2022-08-16T01:56:40.388Z,20.40
2022-08-16T01:58:48.025Z,20.40
2022-08-16T02:00:51.658Z,20.40
2022-08-16T02:02:54.396Z,20.40
2022-08-16T02:04:57.497Z,20.40
2022-08-16T02:07:00.359Z,20.40
2022-08-16T02:09:05.140Z,20.40
2022-08-16T02:11:09.605Z,20.40
2022-08-16T02:13:13.373Z,20.40
2022-08-16T02:15:16.900Z,20.40
2022-08-16T02:17:19.665Z,20.40
2022-08-16T02:19:22.432Z,20.40
2022-08-16T02:21:31.384Z,20.40
2022-08-16T02:23:34.612Z,20.40
2022-08-16T02:25:51.780Z,20.40
2022-08-16T02:27:58.865Z,20.40
2022-08-16T02:30:05.446Z,20.40
2022-08-16T02:32:50.071Z,20.40
2022-08-16T02:34:32.884Z,20.40
2022-08-16T02:36:49.621Z,20.40
2022-08-16T02:38:53.443Z,20.30
2022-08-16T02:40:57.394Z,20.40
2022-08-16T02:43:03.140Z,20.30
2022-08-16T02:45:06.384Z,20.30
2022-08-16T02:47:11.719Z,20.30
2022-08-16T02:49:58.460Z,20.30
2022-08-16T02:51:51.046Z,20.20
2022-08-16T02:53:54.279Z,20.20
2022-08-16T02:55:59.312Z,20.20
2022-08-16T02:58:05.346Z,20.10
2022-08-16T03:00:34.482Z,20.20
2022-08-16T03:02:33.237Z,20.10
2022-08-16T03:04:51.971Z,20.10
2022-08-16T03:06:56.623Z,20.00
2022-08-16T03:09:00.288Z,20.00
2022-08-16T03:11:04.095Z,20.00
2022-08-16T03:13:12.292Z,20.00
2022-08-16T03:15:15.867Z,20.00
2022-08-16T03:17:21.292Z,20.00
2022-08-16T03:19:25.337Z,19.90
2022-08-16T03:21:28.773Z,19.70
2022-08-16T03:23:41.604Z,19.50
2022-08-16T03:25:44.962Z,19.40
2022-08-16T03:27:51.768Z,19.30
2022-08-16T03:29:55.829Z,19.30
2022-08-16T03:31:58.958Z,19.40
2022-08-16T03:34:02.211Z,19.40
2022-08-16T03:36:30.164Z,19.50
2022-08-16T03:38:32.440Z,19.50
2022-08-16T03:40:37.081Z,19.50
2022-08-16T03:43:18.664Z,19.40
2022-08-16T03:45:04.787Z,19.40
2022-08-16T03:47:10.086Z,19.40
2022-08-16T03:49:13.390Z,19.50
2022-08-16T03:51:16.140Z,19.50
2022-08-16T03:53:26.553Z,19.50
2022-08-16T03:55:45.765Z,19.50
2022-08-16T03:57:52.262Z,19.60
2022-08-16T03:59:55.225Z,19.60
2022-08-16T04:02:01.174Z,19.50
2022-08-16T04:04:04.660Z,19.50
2022-08-16T04:06:07.884Z,19.40
2022-08-16T04:08:23.131Z,19.30
2022-08-16T04:10:35.634Z,19.30
2022-08-16T04:12:53.438Z,19.30
2022-08-16T04:15:03.272Z,19.40
2022-08-16T04:17:11.240Z,19.40
2022-08-16T04:19:13.956Z,19.30
2022-08-16T04:21:29.519Z,19.40
2022-08-16T04:23:32.549Z,19.40
2022-08-16T04:25:36.232Z,19.50
2022-08-16T04:27:39.073Z,19.60
2022-08-16T04:30:03.270Z,19.60
2022-08-16T04:32:06.699Z,19.60
2022-08-16T04:34:11.227Z,19.60
2022-08-16T04:36:19.721Z,19.70
2022-08-16T04:38:23.142Z,19.70
2022-08-16T04:40:27.347Z,19.90
2022-08-16T04:42:30.149Z,19.90
2022-08-16T04:44:53.913Z,20.00
2022-08-16T04:47:02.688Z,20.10
2022-08-16T04:49:22.724Z,20.20
2022-08-16T04:51:25.815Z,20.30
2022-08-16T04:53:29.432Z,20.30
2022-08-16T04:55:38.321Z,20.40
2022-08-16T04:57:41.630Z,20.40
2022-08-16T04:59:44.834Z,20.50
2022-08-16T05:01:59.156Z,20.50
2022-08-16T05:04:02.280Z,20.60
2022-08-16T05:06:09.292Z,20.60
2022-08-16T05:08:29.248Z,20.60
2022-08-16T05:10:33.172Z,20.60
2022-08-16T05:12:36.171Z,20.70
2022-08-16T05:14:45.707Z,20.80
2022-08-16T05:16:52.197Z,20.90
2022-08-16T05:18:56.535Z,20.90
2022-08-16T05:21:09.352Z,20.90
2022-08-16T05:23:16.957Z,20.90
2022-08-16T05:25:19.803Z,21.00
2022-08-16T05:27:22.555Z,21.10
2022-08-16T05:29:57.809Z,21.20
2022-08-16T05:31:53.249Z,21.40
2022-08-16T05:33:56.248Z,21.50
2022-08-16T05:35:58.968Z,21.50
2022-08-16T05:38:30.925Z,21.60
2022-08-16T05:40:30.713Z,21.70
2022-08-16T05:42:35.836Z,21.70
2022-08-16T05:44:38.860Z,21.70
2022-08-16T05:46:43.816Z,21.70
2022-08-16T05:48:55.203Z,21.80
2022-08-16T05:51:03.143Z,21.90
2022-08-16T05:53:05.902Z,22.10
2022-08-16T05:55:09.444Z,22.20
2022-08-16T05:57:16.420Z,22.30
2022-08-16T05:59:19.572Z,22.40
2022-08-16T06:01:25.137Z,22.50
2022-08-16T06:03:29.524Z,22.60
2022-08-16T06:05:36.029Z,22.60
2022-08-16T06:07:39.092Z,22.80
2022-08-16T06:09:43.544Z,22.90
2022-08-16T06:11:46.716Z,22.90
2022-08-16T06:13:50.764Z,23.10
2022-08-16T06:15:54.307Z,23.10
2022-08-16T06:17:58.826Z,23.20
2022-08-16T06:20:01.551Z,23.10
2022-08-16T06:22:04.337Z,23.20
2022-08-16T06:24:52.670Z,23.30
2022-08-16T06:26:37.067Z,23.40
2022-08-16T06:28:41.689Z,23.50
2022-08-16T06:30:46.036Z,23.60
2022-08-16T06:32:49.887Z,23.70
2022-08-16T06:34:55.402Z,23.80
2022-08-16T06:37:00.377Z,23.90
2022-08-16T06:39:06.044Z,23.90
2022-08-16T06:41:13.531Z,24.00
2022-08-16T06:43:16.835Z,24.10
2022-08-16T06:45:20.831Z,24.20
2022-08-16T06:47:53.116Z,24.10
2022-08-16T06:49:53.973Z,24.10
2022-08-16T06:52:03.044Z,24.30
2022-08-16T06:54:06.453Z,24.30
2022-08-16T06:56:14.891Z,24.30
2022-08-16T06:58:31.940Z,24.40
2022-08-16T07:00:35.032Z,24.50
2022-08-16T07:02:51.206Z,24.60
2022-08-16T07:04:54.849Z,24.70
2022-08-16T07:06:57.985Z,24.90
2022-08-16T07:09:02.443Z,25.10
2022-08-16T07:11:12.525Z,25.20
2022-08-16T07:13:53.158Z,25.40
2022-08-16T07:15:50.703Z,25.50
2022-08-16T07:17:55.434Z,25.60
2022-08-16T07:20:03.131Z,25.70
2022-08-16T07:22:37.720Z,25.60
2022-08-16T07:24:45.656Z,25.70
2022-08-16T07:26:48.880Z,26.00
2022-08-16T07:28:51.905Z,26.00
2022-08-16T07:30:54.684Z,26.20
2022-08-16T07:32:58.804Z,26.40
2022-08-16T07:35:01.565Z,26.50
2022-08-16T07:37:06.437Z,26.70
2022-08-16T07:39:09.568Z,26.70
2022-08-16T07:41:12.681Z,26.80
2022-08-16T07:43:15.468Z,27.00
2022-08-16T07:45:18.290Z,27.10
2022-08-16T07:47:24.377Z,27.10
2022-08-16T07:49:32.494Z,27.20
2022-08-16T07:51:37.253Z,27.10
2022-08-16T07:53:43.657Z,27.30
2022-08-16T07:55:48.066Z,27.40
2022-08-16T07:58:00.659Z,27.40
2022-08-16T08:00:07.015Z,27.50
2022-08-16T08:02:21.431Z,27.40
2022-08-16T08:04:24.143Z,27.60
2022-08-16T08:06:36.551Z,27.50
2022-08-16T08:08:51.590Z,27.70
2022-08-16T08:10:55.011Z,27.90
2022-08-16T08:12:59.419Z,27.90
2022-08-16T08:15:02.927Z,27.90
2022-08-16T08:17:08.552Z,28.00
2022-08-16T08:19:12.353Z,28.20
2022-08-16T08:21:15.081Z,28.60
2022-08-16T08:23:20.952Z,28.70
2022-08-16T08:25:23.767Z,28.80
2022-08-16T08:27:26.818Z,28.70
2022-08-16T08:29:37.605Z,28.80
2022-08-16T08:31:43.005Z,28.90
2022-08-16T08:33:51.548Z,28.60
2022-08-16T08:36:00.700Z,28.80
2022-08-16T08:38:04.143Z,29.30
2022-08-16T08:40:12.301Z,28.80
2022-08-16T08:42:16.288Z,28.90
2022-08-16T08:44:30.722Z,28.90
2022-08-16T08:46:35.810Z,29.40
2022-08-16T08:48:39.148Z,29.50
2022-08-16T08:50:50.237Z,29.30
2022-08-16T08:52:54.904Z,29.10
2022-08-16T08:54:59.297Z,29.60
2022-08-16T08:57:03.420Z,29.30
2022-08-16T08:59:13.620Z,29.40
2022-08-16T09:01:31.669Z,29.40
2022-08-16T09:03:39.557Z,29.50
2022-08-16T09:05:44.145Z,29.50
2022-08-16T09:08:01.718Z,29.60
2022-08-16T09:10:20.686Z,29.80
2022-08-16T09:12:31.224Z,29.80
2022-08-16T09:14:51.183Z,29.90
2022-08-16T09:17:02.393Z,30.30
2022-08-16T09:19:14.029Z,30.70
2022-08-16T09:21:16.812Z,30.90
2022-08-16T09:23:20.689Z,31.10
2022-08-16T09:25:34.315Z,31.40
2022-08-16T09:27:57.003Z,31.40
2022-08-16T09:30:02.678Z,31.30
2022-08-16T09:32:28.685Z,30.90
2022-08-16T09:34:33.365Z,30.10
2022-08-16T09:36:36.071Z,29.30
2022-08-16T09:38:39.336Z,28.80
2022-08-16T09:40:44.327Z,28.60
2022-08-16T09:42:58.848Z,28.80
2022-08-16T09:45:12.161Z,29.70
2022-08-16T09:47:23.463Z,30.40
2022-08-16T09:49:36.696Z,30.80
2022-08-16T09:51:40.097Z,31.10
2022-08-16T09:53:43.112Z,31.30
2022-08-16T09:55:49.599Z,31.90
2022-08-16T09:57:54.747Z,32.20
2022-08-16T09:59:57.463Z,32.50
2022-08-16T10:02:00.840Z,32.60
2022-08-16T10:04:31.130Z,32.30
2022-08-16T10:06:35.898Z,32.10
2022-08-16T10:09:04.195Z,32.70
2022-08-16T10:11:24.805Z,33.10
2022-08-16T10:13:29.376Z,33.20
2022-08-16T10:15:32.349Z,32.70
2022-08-16T10:17:35.665Z,31.80
2022-08-16T10:19:38.396Z,32.30
2022-08-16T10:21:41.894Z,32.60
2022-08-16T10:23:45.107Z,32.70
2022-08-16T10:27:19.699Z,32.70
2022-08-16T10:28:29.018Z,32.90
2022-08-16T10:30:38.926Z,33.10
2022-08-16T10:32:42.804Z,33.60
2022-08-16T10:34:45.630Z,33.60
2022-08-16T10:36:55.437Z,34.10
2022-08-16T10:38:58.172Z,34.70
2022-08-16T10:41:01.018Z,35.00
2022-08-16T10:43:04.325Z,35.20
2022-08-16T10:45:11.991Z,34.70
2022-08-16T10:47:16.252Z,34.00
2022-08-16T10:49:20.198Z,33.30
2022-08-16T10:51:33.653Z,32.80
2022-08-16T10:53:46.499Z,32.10
2022-08-16T10:55:57.558Z,31.70
2022-08-16T10:58:11.377Z,31.30
2022-08-16T11:00:21.322Z,31.00
2022-08-16T11:03:37.597Z,30.60
2022-08-16T11:05:06.293Z,30.50
2022-08-16T11:09:43.798Z,30.50
2022-08-16T11:14:11.294Z,32.90
2022-08-16T11:18:54.902Z,34.00
2022-08-16T11:21:02.018Z,34.20
2022-08-16T11:23:04.952Z,34.90
2022-08-16T11:25:15.214Z,35.40
2022-08-16T11:27:35.622Z,35.70
2022-08-16T11:29:38.815Z,35.90
2022-08-16T11:31:45.723Z,35.90
2022-08-16T11:33:57.567Z,36.40
2022-08-16T11:38:51.311Z,36.50
2022-08-16T11:40:52.380Z,36.80
2022-08-16T11:42:56.412Z,36.50
2022-08-16T11:44:59.210Z,36.70
2022-08-16T11:47:01.989Z,36.40
2022-08-16T11:49:11.196Z,36.50
2022-08-16T11:51:16.257Z,35.80
2022-08-16T11:53:21.067Z,36.30
2022-08-16T11:55:24.853Z,35.90
2022-08-16T11:57:27.913Z,34.40
2022-08-16T11:59:30.717Z,34.30
2022-08-16T12:01:44.170Z,34.40
2022-08-16T12:03:58.345Z,35.20
2022-08-16T12:06:10.943Z,35.40
2022-08-16T12:08:14.943Z,35.70
2022-08-16T12:10:21.125Z,35.70
2022-08-16T12:12:24.088Z,34.70
2022-08-16T12:14:26.961Z,35.50
2022-08-16T12:16:34.444Z,35.70
2022-08-16T12:18:37.629Z,36.10
2022-08-16T12:20:43.645Z,36.20
2022-08-16T12:22:51.057Z,36.50
2022-08-16T12:24:55.306Z,36.20
2022-08-16T12:26:58.396Z,36.80
2022-08-16T12:29:03.389Z,37.10
2022-08-16T12:31:06.270Z,37.40
2022-08-16T12:33:14.526Z,37.00
2022-08-16T12:35:29.586Z,36.70
2022-08-16T12:37:32.329Z,35.60
2022-08-16T12:39:38.981Z,35.10
2022-08-16T12:41:53.389Z,34.00
2022-08-16T12:43:57.093Z,35.00
2022-08-16T12:46:03.979Z,35.30
2022-08-16T12:48:42.264Z,35.30
2022-08-16T12:50:50.137Z,36.10
2022-08-16T12:52:53.655Z,36.60
2022-08-16T12:54:57.960Z,36.60
2022-08-16T12:57:01.238Z,36.60
2022-08-16T12:59:05.660Z,35.50
2022-08-16T13:01:09.434Z,35.40
2022-08-16T13:03:12.779Z,35.70
2022-08-16T13:05:15.825Z,35.50
2022-08-16T13:07:19.173Z,35.60
2022-08-16T13:09:31.865Z,35.90
2022-08-16T13:11:55.403Z,35.90
2022-08-16T13:14:00.822Z,36.30
2022-08-16T13:16:15.347Z,36.50
2022-08-16T13:18:26.960Z,36.40
2022-08-16T13:20:36.246Z,36.30
2022-08-16T13:22:44.159Z,35.70
2022-08-16T13:24:46.962Z,35.10
2022-08-16T13:26:53.341Z,35.30
2022-08-16T13:28:56.201Z,34.70
2022-08-16T13:30:59.476Z,34.10
2022-08-16T13:33:02.270Z,33.30
2022-08-16T13:35:14.902Z,33.80
2022-08-16T13:37:19.692Z,34.20
2022-08-16T13:39:22.976Z,34.60
2022-08-16T13:41:30.266Z,34.80
2022-08-16T13:43:34.619Z,35.40
2022-08-16T13:45:37.360Z,35.20
2022-08-16T13:47:48.507Z,35.10
2022-08-16T13:49:56.331Z,35.00
2022-08-16T13:51:59.049Z,35.00
2022-08-16T13:54:04.057Z,35.20
2022-08-16T13:56:07.410Z,35.40
2022-08-16T13:58:34.428Z,34.70
2022-08-16T14:00:37.241Z,35.00
2022-08-16T14:02:40.016Z,35.20
2022-08-16T14:04:42.939Z,35.50
2022-08-16T14:06:45.887Z,35.60
2022-08-16T14:08:59.225Z,35.60
2022-08-16T14:11:11.770Z,35.60
2022-08-16T14:13:20.971Z,35.50
2022-08-16T14:15:25.400Z,35.60
2022-08-16T14:17:31.276Z,35.40
2022-08-16T14:19:53.088Z,35.40
2022-08-16T14:22:13.970Z,35.20
2022-08-16T14:24:30.158Z,35.30
2022-08-16T14:26:33.320Z,34.70
2022-08-16T14:28:36.374Z,34.50
2022-08-16T14:30:40.554Z,34.30
2022-08-16T14:32:49.720Z,34.00
2022-08-16T14:34:53.958Z,33.90
2022-08-16T14:36:59.550Z,34.10
2022-08-16T14:39:02.510Z,34.20
2022-08-16T14:41:10.174Z,34.40
2022-08-16T14:43:15.487Z,34.40
2022-08-16T14:45:19.907Z,34.40
2022-08-16T14:47:25.169Z,34.00
2022-08-16T14:49:40.631Z,34.30
2022-08-16T14:51:46.042Z,34.10
2022-08-16T14:53:51.980Z,34.00
2022-08-16T14:55:55.748Z,33.90
2022-08-16T14:57:58.525Z,33.80
2022-08-16T15:00:05.975Z,33.90
2022-08-16T15:02:11.902Z,34.00
2022-08-16T15:04:40.408Z,33.90
2022-08-16T15:06:52.154Z,33.70
2022-08-16T15:08:58.316Z,33.50
2022-08-16T15:11:01.042Z,33.50
2022-08-16T15:13:05.648Z,33.60
2022-08-16T15:15:16.308Z,33.40
2022-08-16T15:17:19.825Z,33.30
2022-08-16T15:19:27.019Z,33.10
2022-08-16T15:21:30.654Z,32.90
2022-08-16T15:23:34.696Z,32.90
2022-08-16T15:25:41.531Z,33.00
2022-08-16T15:27:45.211Z,33.00
2022-08-16T15:29:57.684Z,32.90
2022-08-16T15:32:01.171Z,32.70
2022-08-16T15:34:04.109Z,32.80
2022-08-16T15:36:07.788Z,32.70
2022-08-16T15:38:56.981Z,32.70
2022-08-16T15:40:35.754Z,32.50
2022-08-16T15:42:38.840Z,32.50
2022-08-16T15:44:52.911Z,32.50
2022-08-16T15:46:58.835Z,32.50
2022-08-16T15:49:05.453Z,32.50
2022-08-16T15:51:10.161Z,32.50
2022-08-16T15:53:15.662Z,32.20
2022-08-16T15:55:29.837Z,31.90
2022-08-16T15:57:41.564Z,31.90
2022-08-16T15:59:48.826Z,31.90
2022-08-16T16:01:56.622Z,31.90
2022-08-16T16:04:01.102Z,31.90
2022-08-16T16:06:06.356Z,32.00
2022-08-16T16:08:12.227Z,32.00
2022-08-16T16:10:15.637Z,31.90
2022-08-16T16:12:50.124Z,32.00
2022-08-16T16:14:43.993Z,31.90
2022-08-16T16:16:50.191Z,31.80
2022-08-16T16:18:56.843Z,31.80
2022-08-16T16:21:01.089Z,31.70
2022-08-16T16:23:10.007Z,31.50
2022-08-16T16:25:15.697Z,31.50
2022-08-16T16:27:18.472Z,31.40
2022-08-16T16:29:24.580Z,31.40
2022-08-16T16:31:35.909Z,31.30
2022-08-16T16:33:39.728Z,31.20
2022-08-16T16:35:46.907Z,31.10
2022-08-16T16:37:50.019Z,31.10
2022-08-16T16:39:56.907Z,31.00
2022-08-16T16:42:01.025Z,31.00
2022-08-16T16:44:06.904Z,30.90
2022-08-16T16:46:40.927Z,31.00
2022-08-16T16:48:39.785Z,30.90
2022-08-16T16:50:44.638Z,30.90
2022-08-16T16:52:48.273Z,30.90
2022-08-16T16:54:51.009Z,30.80
2022-08-16T16:56:58.994Z,30.80
2022-08-16T16:59:04.378Z,30.70
2022-08-16T17:01:07.699Z,30.70
2022-08-16T17:03:17.427Z,30.70
2022-08-16T17:05:22.446Z,30.60
2022-08-16T17:07:26.676Z,30.60
2022-08-16T17:09:31.152Z,30.50
2022-08-16T17:11:37.512Z,30.50
2022-08-16T17:13:40.381Z,30.50
2022-08-16T17:15:44.646Z,30.40
2022-08-16T17:18:00.506Z,30.30
2022-08-16T17:20:05.709Z,30.40
2022-08-16T17:22:19.674Z,30.30
2022-08-16T17:24:31.320Z,30.30
2022-08-16T17:26:43.249Z,30.30
2022-08-16T17:28:52.046Z,30.20
2022-08-16T17:31:03.220Z,30.20
2022-08-16T17:33:10.247Z,30.10
2022-08-16T17:35:18.556Z,30.00
2022-08-16T17:37:42.221Z,29.90
2022-08-16T17:39:59.852Z,29.80
2022-08-16T17:42:04.705Z,29.80
2022-08-16T17:44:08.789Z,29.70
2022-08-16T17:46:50.466Z,29.60
2022-08-16T17:48:35.453Z,29.60
2022-08-16T17:50:38.273Z,29.50
2022-08-16T17:52:49.084Z,29.40
2022-08-16T17:54:52.285Z,29.40
2022-08-16T17:56:55.008Z,29.30
2022-08-16T17:58:58.248Z,29.30
2022-08-16T18:01:01.789Z,29.20
2022-08-16T18:03:05.433Z,29.20
2022-08-16T18:05:12.552Z,29.10
2022-08-16T18:07:15.292Z,29.00
2022-08-16T18:09:19.342Z,28.90
2022-08-16T18:11:25.696Z,28.90
2022-08-16T18:13:29.550Z,28.80
2022-08-16T18:15:32.708Z,28.70
2022-08-16T18:17:35.434Z,28.60
2022-08-16T18:19:38.337Z,28.50
2022-08-16T18:21:59.650Z,28.50
2022-08-16T18:24:03.813Z,28.40
2022-08-16T18:26:08.255Z,28.30
2022-08-16T18:28:10.981Z,28.30
2022-08-16T18:30:17.410Z,28.20
2022-08-16T18:32:24.308Z,28.20
2022-08-16T18:34:27.773Z,28.20
2022-08-16T18:36:30.867Z,28.10
2022-08-16T18:38:34.821Z,28.10
2022-08-16T18:40:40.630Z,27.90
2022-08-16T18:42:55.404Z,27.80
2022-08-16T18:44:58.130Z,27.70
2022-08-16T18:47:00.845Z,27.70
2022-08-16T18:49:03.563Z,27.60
2022-08-16T18:51:11.538Z,27.50
2022-08-16T18:53:19.187Z,27.40
2022-08-16T18:55:22.242Z,27.40
2022-08-16T18:57:24.976Z,27.30
2022-08-16T18:59:30.418Z,27.30
2022-08-16T19:01:33.187Z,27.20
2022-08-16T19:03:35.931Z,27.00
2022-08-16T19:05:41.052Z,27.00
2022-08-16T19:07:43.827Z,27.00
2022-08-16T19:09:46.580Z,27.00
2022-08-16T19:11:49.352Z,27.00
2022-08-16T19:13:52.263Z,26.90
2022-08-16T19:15:59.299Z,26.90
2022-08-16T19:18:02.038Z,26.90
2022-08-16T19:20:10.352Z,26.80
2022-08-16T19:22:13.544Z,26.70
2022-08-16T19:24:18.271Z,26.60
2022-08-16T19:26:26.048Z,26.50
2022-08-16T19:28:51.021Z,26.40
2022-08-16T19:30:53.513Z,26.30
2022-08-16T19:32:57.543Z,26.20
2022-08-16T19:35:00.904Z,26.10
2022-08-16T19:37:03.655Z,26.10
2022-08-16T19:39:09.011Z,26.00
2022-08-16T19:41:11.973Z,26.00
2022-08-16T19:43:14.682Z,26.00
2022-08-16T19:45:19.833Z,26.00
2022-08-16T19:47:22.868Z,26.00
2022-08-16T19:49:26.931Z,26.00
2022-08-16T19:51:29.705Z,25.90
2022-08-16T19:53:32.788Z,25.90
2022-08-16T19:55:36.304Z,25.90
2022-08-16T19:57:39.379Z,25.80
2022-08-16T19:59:42.366Z,25.80
2022-08-16T20:01:45.164Z,25.70
2022-08-16T20:03:47.871Z,25.70
2022-08-16T20:05:53.885Z,25.70
2022-08-16T20:08:00.976Z,25.70
2022-08-16T20:10:07.502Z,25.60
2022-08-16T20:12:11.038Z,25.50
2022-08-16T20:14:24.381Z,25.40
2022-08-16T20:16:28.927Z,25.30
2022-08-16T20:18:32.538Z,25.20
2022-08-16T20:20:35.300Z,25.00
2022-08-16T20:22:54.970Z,25.00
2022-08-16T20:24:57.844Z,24.80
2022-08-16T20:27:00.599Z,24.80
2022-08-16T20:29:03.349Z,24.80
2022-08-16T20:31:06.272Z,24.70
2022-08-16T20:33:10.883Z,24.70
2022-08-16T20:35:17.569Z,24.70
2022-08-16T20:37:21.932Z,24.70
2022-08-16T20:39:26.018Z,24.70
2022-08-16T20:41:28.824Z,24.70
2022-08-16T20:43:31.594Z,24.60
2022-08-16T20:45:34.455Z,24.50
2022-08-16T20:47:37.285Z,24.50
2022-08-16T20:49:44.414Z,24.50
2022-08-16T20:51:50.498Z,24.30
2022-08-16T20:53:54.620Z,24.20
2022-08-16T20:55:59.122Z,24.10
2022-08-16T20:58:01.817Z,24.00
2022-08-16T21:00:05.183Z,24.00
2022-08-16T21:02:07.983Z,23.90
2022-08-16T21:04:10.680Z,23.80
2022-08-16T21:06:16.441Z,23.80
2022-08-16T21:08:50.569Z,23.70
2022-08-16T21:10:41.880Z,23.60
2022-08-16T21:12:50.610Z,23.60
2022-08-16T21:14:53.800Z,23.60
2022-08-16T21:16:56.821Z,23.60
2022-08-16T21:19:00.343Z,23.50
2022-08-16T21:21:03.082Z,23.50
2022-08-16T21:23:07.665Z,23.40
2022-08-16T21:25:11.843Z,23.40
2022-08-16T21:27:17.424Z,23.30
2022-08-16T21:29:21.616Z,23.20
2022-08-16T21:31:27.586Z,23.10
2022-08-16T21:33:30.297Z,23.10
2022-08-16T21:35:33.204Z,23.10
2022-08-16T21:37:35.926Z,23.10
2022-08-16T21:39:38.802Z,23.10
2022-08-16T21:41:41.543Z,23.20
2022-08-16T21:43:44.253Z,23.10
2022-08-16T21:45:48.566Z,23.10
2022-08-16T21:47:57.576Z,23.10
2022-08-16T21:50:00.268Z,23.00
2022-08-16T21:52:03.003Z,23.00
2022-08-16T21:54:05.940Z,22.90
2022-08-16T21:56:12.699Z,22.80
2022-08-16T21:58:19.723Z,22.80
2022-08-16T22:00:22.473Z,22.70
2022-08-16T22:02:27.876Z,22.60
2022-08-16T22:04:39.401Z,22.60
2022-08-16T22:06:42.296Z,22.50
2022-08-16T22:08:49.782Z,22.50
2022-08-16T22:11:07.091Z,22.50
2022-08-16T22:13:15.995Z,22.40
2022-08-16T22:15:25.580Z,22.40
2022-08-16T22:17:30.012Z,22.30
2022-08-16T22:19:32.732Z,22.20
2022-08-16T22:21:35.656Z,22.20
2022-08-16T22:23:38.373Z,22.20
2022-08-16T22:25:42.638Z,22.20
2022-08-16T22:27:47.022Z,22.20
2022-08-16T22:29:49.718Z,22.20
2022-08-16T22:31:52.419Z,22.30
2022-08-16T22:33:57.208Z,22.40
2022-08-16T22:36:00.898Z,22.40
2022-08-16T22:38:54.411Z,22.40
2022-08-16T22:40:26.296Z,22.30
2022-08-16T22:42:30.035Z,22.10
2022-08-16T22:44:32.735Z,22.20
2022-08-16T22:46:36.475Z,22.20
2022-08-16T22:48:39.477Z,22.20
2022-08-16T22:50:47.141Z,22.10
2022-08-16T22:52:56.424Z,22.10
2022-08-16T22:55:02.120Z,22.00
2022-08-16T22:57:05.366Z,21.90
2022-08-16T22:59:08.216Z,21.80
2022-08-16T23:01:12.733Z,21.80
2022-08-16T23:03:17.227Z,21.70
2022-08-16T23:05:19.960Z,21.60
2022-08-16T23:07:25.367Z,21.50
2022-08-16T23:09:28.116Z,21.60
2022-08-16T23:11:30.834Z,21.50
2022-08-16T23:13:33.676Z,21.50
2022-08-16T23:15:40.560Z,21.50
2022-08-16T23:17:43.243Z,21.50
2022-08-16T23:19:46.487Z,21.60
2022-08-16T23:21:49.355Z,21.50
2022-08-16T23:23:53.923Z,21.50
2022-08-16T23:25:58.187Z,21.50
2022-08-16T23:28:00.875Z,21.30
2022-08-16T23:30:03.831Z,21.30
2022-08-16T23:32:10.820Z,21.30
2022-08-16T23:34:13.552Z,21.30
2022-08-16T23:36:16.583Z,21.30
2022-08-16T23:38:37.440Z,21.30
2022-08-16T23:40:42.690Z,21.30
2022-08-16T23:42:56.417Z,21.30
2022-08-16T23:44:59.575Z,21.20
2022-08-16T23:47:02.384Z,21.20
2022-08-16T23:49:57.381Z,21.00
2022-08-16T23:51:28.901Z,21.00
2022-08-16T23:53:32.369Z,21.00
2022-08-16T23:55:40.997Z,21.00
2022-08-16T23:57:45.099Z,20.90
2022-08-16T23:59:53.621Z,21.00
